Overview Statistics Trail Chart Weather Telemetry Raw packets
 

This is the latest recevied weather packets stored in our database for station/object K7SKM. If no packets are shown the sender has not sent any weather packets the latest 10 day(s).

<< 107 108 109 110 111 112 113 >>
Time Temp. Humidity Pressure Rain* Wind** Luminosity Snow
1787866434 23.89° C 51% 1022.8 hPa 0 mm - 136 W/m² -
1787866129 23.33° C 52% 1022.6 hPa 0 mm - 139 W/m² -
1787865829 23.33° C 53% 1022.7 hPa 0 mm - 238 W/m² -
1787865525 23.33° C 54% 1022.6 hPa 0 mm - 259 W/m² -
1787865219 22.78° C 53% 1022.7 hPa 0 mm - 151 W/m² -
1787864916 23.33° C 53% 1022.7 hPa 0 mm - 154 W/m² -
1787864610 22.78° C 55% 1022.7 hPa 0 mm - 296 W/m² -
1787864305 22.22° C 56% 1022.8 hPa 0 mm - 149 W/m² -
1787863999 21.67° C 57% 1022.7 hPa 0 mm - 190 W/m² -
1787863698 21.67° C 57% 1022.9 hPa 0 mm - 133 W/m² -
1787863397 21.67° C 57% 1022.9 hPa 0 mm - 124 W/m² -
1787863093 21.67° C 58% 1022.8 hPa 0 mm - 121 W/m² -
1787862788 21.67° C 57% 1022.7 hPa 0 mm - 99 W/m² -
1787862487 21.67° C 58% 1022.8 hPa 0 mm - 117 W/m² -
1787862183 21.67° C 57% 1022.7 hPa 0 mm - 140 W/m² -
1787861878 21.67° C 58% 1022.5 hPa 0 mm - 196 W/m² -
1787861577 21.67° C 57% 1022.6 hPa 0 mm - 227 W/m² -
1787861270 22.22° C 55% 1022.7 hPa 0 mm - 203 W/m² -
1787860965 21.67° C 56% 1022.5 hPa 0 mm - 84 W/m² -
1787860664 21.67° C 56% 1022.6 hPa 0 mm - 131 W/m² -
1787860360 22.22° C 56% 1022.6 hPa 0 mm - 178 W/m² -
1787860054 21.11° C 59% 1022.7 hPa 0 mm - 479 W/m² -
1787859749 21.11° C 60% 1022.8 hPa 0 mm - 318 W/m² -
1787859445 20.56° C 60% 1022.7 hPa 0 mm - 163 W/m² -
1787859144 20.56° C 60% 1022.7 hPa 0 mm - 148 W/m² -

* Rain latest hour (hover to see other rain measurements)
** Current wind speed in m/s (hover to see current wind gust speed)